sensor_id;sensor_type;location;lat;lon;timestamp;P1;durP1;ratioP1;P2;durP2;ratioP2
4424;SDS011;2225;53.568;13.266;2023-04-01T00:01:46;9.70;;;5.50;;
4424;SDS011;2225;53.568;13.266;2023-04-01T00:04:13;10.03;;;5.30;;
4424;SDS011;2225;53.568;13.266;2023-04-01T00:06:41;11.37;;;5.47;;
4424;SDS011;2225;53.568;13.266;2023-04-01T00:09:08;9.50;;;5.80;;
4424;SDS011;2225;53.568;13.266;2023-04-01T00:11:35;8.80;;;5.20;;
4424;SDS011;2225;53.568;13.266;2023-04-01T00:14:03;9.03;;;4.73;;
4424;SDS011;2225;53.568;13.266;2023-04-01T00:16:30;9.63;;;4.90;;
4424;SDS011;2225;53.568;13.266;2023-04-01T00:18:57;9.80;;;5.57;;
4424;SDS011;2225;53.568;13.266;2023-04-01T00:21:24;16.03;;;7.70;;
4424;SDS011;2225;53.568;13.266;2023-04-01T00:23:51;10.17;;;5.90;;
4424;SDS011;2225;53.568;13.266;2023-04-01T00:26:18;11.43;;;6.00;;
4424;SDS011;2225;53.568;13.266;2023-04-01T00:28:47;10.60;;;5.70;;
4424;SDS011;2225;53.568;13.266;2023-04-01T00:31:15;10.07;;;6.30;;
4424;SDS011;2225;53.568;13.266;2023-04-01T00:33:42;8.63;;;5.00;;
4424;SDS011;2225;53.568;13.266;2023-04-01T00:36:10;11.73;;;6.53;;
4424;SDS011;2225;53.568;13.266;2023-04-01T00:38:42;9.60;;;5.30;;
4424;SDS011;2225;53.568;13.266;2023-04-01T00:41:10;9.97;;;5.67;;
4424;SDS011;2225;53.568;13.266;2023-04-01T00:43:41;8.20;;;4.40;;
4424;SDS011;2225;53.568;13.266;2023-04-01T00:46:11;8.83;;;5.20;;
4424;SDS011;2225;53.568;13.266;2023-04-01T00:48:39;8.63;;;5.00;;
4424;SDS011;2225;53.568;13.266;2023-04-01T00:51:17;9.87;;;4.73;;
4424;SDS011;2225;53.568;13.266;2023-04-01T00:53:49;7.17;;;3.97;;
4424;SDS011;2225;53.568;13.266;2023-04-01T00:56:21;9.90;;;4.00;;
4424;SDS011;2225;53.568;13.266;2023-04-01T00:59:27;7.73;;;4.10;;
4424;SDS011;2225;53.568;13.266;2023-04-01T01:01:49;7.90;;;4.20;;
4424;SDS011;2225;53.568;13.266;2023-04-01T01:04:35;8.27;;;4.03;;
4424;SDS011;2225;53.568;13.266;2023-04-01T01:07:09;7.53;;;4.10;;
4424;SDS011;2225;53.568;13.266;2023-04-01T01:16:04;9.00;;;4.97;;
4424;SDS011;2225;53.568;13.266;2023-04-01T01:27:15;10.07;;;5.27;;
4424;SDS011;2225;53.568;13.266;2023-04-01T01:35:46;10.13;;;5.07;;
4424;SDS011;2225;53.568;13.266;2023-04-01T01:38:20;8.00;;;4.37;;
4424;SDS011;2225;53.568;13.266;2023-04-01T01:40:57;9.30;;;4.50;;
4424;SDS011;2225;53.568;13.266;2023-04-01T01:43:26;9.63;;;4.40;;
4424;SDS011;2225;53.568;13.266;2023-04-01T01:46:00;8.20;;;4.30;;
4424;SDS011;2225;53.568;13.266;2023-04-01T01:48:34;9.10;;;4.70;;
4424;SDS011;2225;53.568;13.266;2023-04-01T01:51:04;8.27;;;5.13;;
4424;SDS011;2225;53.568;13.266;2023-04-01T01:53:32;12.00;;;6.20;;
4424;SDS011;2225;53.568;13.266;2023-04-01T01:55:59;14.60;;;4.77;;
4424;SDS011;2225;53.568;13.266;2023-04-01T01:58:37;8.13;;;4.60;;
4424;SDS011;2225;53.568;13.266;2023-04-01T02:01:17;9.30;;;5.17;;
4424;SDS011;2225;53.568;13.266;2023-04-01T02:03:52;14.03;;;5.30;;
4424;SDS011;2225;53.568;13.266;2023-04-01T02:06:25;9.17;;;4.60;;
4424;SDS011;2225;53.568;13.266;2023-04-01T02:08:56;8.77;;;4.50;;
4424;SDS011;2225;53.568;13.266;2023-04-01T02:11:29;8.73;;;4.53;;
4424;SDS011;2225;53.568;13.266;2023-04-01T02:14:03;8.53;;;4.40;;
4424;SDS011;2225;53.568;13.266;2023-04-01T02:16:41;7.63;;;3.70;;
4424;SDS011;2225;53.568;13.266;2023-04-01T02:19:11;8.63;;;3.27;;
4424;SDS011;2225;53.568;13.266;2023-04-01T02:21:41;5.97;;;2.90;;
4424;SDS011;2225;53.568;13.266;2023-04-01T02:24:10;5.70;;;2.63;;
4424;SDS011;2225;53.568;13.266;2023-04-01T02:26:41;6.90;;;3.20;;
4424;SDS011;2225;53.568;13.266;2023-04-01T02:29:09;8.40;;;3.63;;
4424;SDS011;2225;53.568;13.266;2023-04-01T02:31:38;4.43;;;1.87;;
4424;SDS011;2225;53.568;13.266;2023-04-01T02:34:06;5.50;;;2.57;;
4424;SDS011;2225;53.568;13.266;2023-04-01T02:36:34;17.60;;;3.00;;
4424;SDS011;2225;53.568;13.266;2023-04-01T02:39:02;5.73;;;2.20;;
4424;SDS011;2225;53.568;13.266;2023-04-01T02:41:30;10.03;;;2.80;;
4424;SDS011;2225;53.568;13.266;2023-04-01T02:43:57;5.60;;;2.30;;
4424;SDS011;2225;53.568;13.266;2023-04-01T02:46:25;4.23;;;1.90;;
4424;SDS011;2225;53.568;13.266;2023-04-01T02:48:52;4.10;;;1.80;;
4424;SDS011;2225;53.568;13.266;2023-04-01T02:51:20;5.00;;;1.80;;
4424;SDS011;2225;53.568;13.266;2023-04-01T02:53:46;5.60;;;1.90;;
4424;SDS011;2225;53.568;13.266;2023-04-01T02:56:13;6.10;;;2.00;;
4424;SDS011;2225;53.568;13.266;2023-04-01T02:58:41;4.50;;;1.83;;
4424;SDS011;2225;53.568;13.266;2023-04-01T03:01:08;4.30;;;1.70;;
4424;SDS011;2225;53.568;13.266;2023-04-01T03:03:35;6.17;;;2.37;;
4424;SDS011;2225;53.568;13.266;2023-04-01T03:06:04;5.37;;;2.10;;
4424;SDS011;2225;53.568;13.266;2023-04-01T03:08:37;7.00;;;2.20;;
4424;SDS011;2225;53.568;13.266;2023-04-01T03:11:04;5.07;;;2.20;;
4424;SDS011;2225;53.568;13.266;2023-04-01T03:13:34;4.23;;;2.10;;
4424;SDS011;2225;53.568;13.266;2023-04-01T03:16:01;5.60;;;2.00;;
4424;SDS011;2225;53.568;13.266;2023-04-01T03:18:28;5.20;;;2.10;;
4424;SDS011;2225;53.568;13.266;2023-04-01T03:20:56;5.33;;;2.20;;
4424;SDS011;2225;53.568;13.266;2023-04-01T03:23:23;5.13;;;2.00;;
4424;SDS011;2225;53.568;13.266;2023-04-01T03:25:50;4.20;;;1.90;;
4424;SDS011;2225;53.568;13.266;2023-04-01T03:28:17;5.20;;;2.07;;
4424;SDS011;2225;53.568;13.266;2023-04-01T03:30:44;4.80;;;2.03;;
4424;SDS011;2225;53.568;13.266;2023-04-01T03:33:11;6.50;;;2.47;;
4424;SDS011;2225;53.568;13.266;2023-04-01T03:35:38;6.17;;;2.20;;
4424;SDS011;2225;53.568;13.266;2023-04-01T03:38:05;4.40;;;1.97;;
4424;SDS011;2225;53.568;13.266;2023-04-01T03:40:32;4.17;;;1.70;;
4424;SDS011;2225;53.568;13.266;2023-04-01T03:43:03;4.60;;;2.10;;
4424;SDS011;2225;53.568;13.266;2023-04-01T03:45:36;4.40;;;2.07;;
4424;SDS011;2225;53.568;13.266;2023-04-01T03:48:11;4.53;;;2.20;;
4424;SDS011;2225;53.568;13.266;2023-04-01T03:50:38;4.30;;;1.77;;
4424;SDS011;2225;53.568;13.266;2023-04-01T03:53:05;9.20;;;2.13;;
4424;SDS011;2225;53.568;13.266;2023-04-01T03:55:38;5.17;;;1.90;;
4424;SDS011;2225;53.568;13.266;2023-04-01T03:58:06;3.73;;;1.53;;
4424;SDS011;2225;53.568;13.266;2023-04-01T04:00:34;4.23;;;1.73;;
4424;SDS011;2225;53.568;13.266;2023-04-01T04:03:03;5.00;;;1.63;;
4424;SDS011;2225;53.568;13.266;2023-04-01T04:05:33;4.40;;;1.50;;
4424;SDS011;2225;53.568;13.266;2023-04-01T04:08:01;4.13;;;1.73;;
4424;SDS011;2225;53.568;13.266;2023-04-01T04:10:28;4.13;;;1.87;;
4424;SDS011;2225;53.568;13.266;2023-04-01T04:12:55;5.87;;;2.20;;
4424;SDS011;2225;53.568;13.266;2023-04-01T04:15:24;4.47;;;1.90;;
4424;SDS011;2225;53.568;13.266;2023-04-01T04:17:51;4.03;;;1.57;;
4424;SDS011;2225;53.568;13.266;2023-04-01T04:20:18;9.03;;;2.43;;
4424;SDS011;2225;53.568;13.266;2023-04-01T04:22:45;4.70;;;1.90;;
4424;SDS011;2225;53.568;13.266;2023-04-01T04:25:12;5.47;;;2.20;;
4424;SDS011;2225;53.568;13.266;2023-04-01T04:27:39;4.07;;;1.70;;
4424;SDS011;2225;53.568;13.266;2023-04-01T04:30:10;4.00;;;1.73;;
4424;SDS011;2225;53.568;13.266;2023-04-01T04:32:38;3.97;;;1.63;;
4424;SDS011;2225;53.568;13.266;2023-04-01T04:35:06;5.47;;;2.33;;
4424;SDS011;2225;53.568;13.266;2023-04-01T04:37:34;7.63;;;2.80;;
4424;SDS011;2225;53.568;13.266;2023-04-01T04:40:01;10.60;;;2.47;;
4424;SDS011;2225;53.568;13.266;2023-04-01T04:42:29;8.07;;;3.13;;
4424;SDS011;2225;53.568;13.266;2023-04-01T04:45:02;5.67;;;2.43;;
4424;SDS011;2225;53.568;13.266;2023-04-01T04:47:30;8.50;;;3.60;;
4424;SDS011;2225;53.568;13.266;2023-04-01T04:49:57;8.63;;;2.77;;
4424;SDS011;2225;53.568;13.266;2023-04-01T04:52:24;5.87;;;2.60;;
4424;SDS011;2225;53.568;13.266;2023-04-01T04:54:51;5.90;;;2.60;;
4424;SDS011;2225;53.568;13.266;2023-04-01T04:57:18;5.47;;;2.50;;
4424;SDS011;2225;53.568;13.266;2023-04-01T04:59:52;6.10;;;2.40;;
4424;SDS011;2225;53.568;13.266;2023-04-01T05:02:45;6.53;;;2.80;;
4424;SDS011;2225;53.568;13.266;2023-04-01T05:05:12;7.67;;;2.50;;
4424;SDS011;2225;53.568;13.266;2023-04-01T05:07:39;9.23;;;2.80;;
4424;SDS011;2225;53.568;13.266;2023-04-01T05:10:06;6.47;;;2.30;;
4424;SDS011;2225;53.568;13.266;2023-04-01T05:12:34;11.00;;;3.10;;
4424;SDS011;2225;53.568;13.266;2023-04-01T05:15:05;5.87;;;2.83;;
4424;SDS011;2225;53.568;13.266;2023-04-01T05:17:33;6.70;;;2.73;;
4424;SDS011;2225;53.568;13.266;2023-04-01T05:20:02;9.13;;;3.10;;
4424;SDS011;2225;53.568;13.266;2023-04-01T05:22:29;8.03;;;3.27;;
4424;SDS011;2225;53.568;13.266;2023-04-01T05:24:56;7.10;;;3.70;;
4424;SDS011;2225;53.568;13.266;2023-04-01T05:27:24;7.10;;;3.50;;
4424;SDS011;2225;53.568;13.266;2023-04-01T05:29:51;7.40;;;3.93;;
4424;SDS011;2225;53.568;13.266;2023-04-01T05:32:39;12.53;;;4.30;;
4424;SDS011;2225;53.568;13.266;2023-04-01T05:35:06;11.10;;;4.23;;
4424;SDS011;2225;53.568;13.266;2023-04-01T05:37:34;7.23;;;3.70;;
4424;SDS011;2225;53.568;13.266;2023-04-01T05:40:03;7.83;;;4.27;;
4424;SDS011;2225;53.568;13.266;2023-04-01T05:42:30;9.63;;;3.60;;
4424;SDS011;2225;53.568;13.266;2023-04-01T05:44:57;9.70;;;4.20;;
4424;SDS011;2225;53.568;13.266;2023-04-01T05:47:43;13.80;;;4.00;;
4424;SDS011;2225;53.568;13.266;2023-04-01T05:50:10;10.50;;;4.20;;
4424;SDS011;2225;53.568;13.266;2023-04-01T05:52:37;9.80;;;4.23;;
4424;SDS011;2225;53.568;13.266;2023-04-01T05:55:05;7.30;;;4.13;;
4424;SDS011;2225;53.568;13.266;2023-04-01T05:57:32;8.80;;;4.30;;
4424;SDS011;2225;53.568;13.266;2023-04-01T05:59:59;7.97;;;3.63;;
4424;SDS011;2225;53.568;13.266;2023-04-01T06:02:37;6.97;;;3.30;;
4424;SDS011;2225;53.568;13.266;2023-04-01T06:05:25;8.33;;;4.23;;
4424;SDS011;2225;53.568;13.266;2023-04-01T06:07:58;6.93;;;3.30;;
4424;SDS011;2225;53.568;13.266;2023-04-01T06:10:48;7.97;;;3.87;;
4424;SDS011;2225;53.568;13.266;2023-04-01T06:16:49;10.53;;;4.13;;
4424;SDS011;2225;53.568;13.266;2023-04-01T06:22:30;7.57;;;3.57;;
4424;SDS011;2225;53.568;13.266;2023-04-01T06:25:35;6.70;;;3.50;;
4424;SDS011;2225;53.568;13.266;2023-04-01T06:34:47;6.90;;;3.27;;
4424;SDS011;2225;53.568;13.266;2023-04-01T06:59:57;10.67;;;4.23;;
4424;SDS011;2225;53.568;13.266;2023-04-01T07:02:38;11.23;;;5.23;;
4424;SDS011;2225;53.568;13.266;2023-04-01T07:05:22;9.43;;;4.70;;
4424;SDS011;2225;53.568;13.266;2023-04-01T07:07:50;8.43;;;3.77;;
4424;SDS011;2225;53.568;13.266;2023-04-01T07:10:30;9.80;;;4.27;;
4424;SDS011;2225;53.568;13.266;2023-04-01T07:13:39;9.50;;;3.70;;
4424;SDS011;2225;53.568;13.266;2023-04-01T07:16:32;6.60;;;3.80;;
4424;SDS011;2225;53.568;13.266;2023-04-01T07:19:19;10.47;;;3.87;;
4424;SDS011;2225;53.568;13.266;2023-04-01T07:22:05;9.20;;;3.43;;
4424;SDS011;2225;53.568;13.266;2023-04-01T07:25:07;7.13;;;3.00;;
4424;SDS011;2225;53.568;13.266;2023-04-01T07:27:51;8.53;;;2.93;;
4424;SDS011;2225;53.568;13.266;2023-04-01T07:31:04;6.10;;;3.17;;
4424;SDS011;2225;53.568;13.266;2023-04-01T07:36:59;7.13;;;3.20;;
4424;SDS011;2225;53.568;13.266;2023-04-01T07:39:39;8.97;;;3.73;;
4424;SDS011;2225;53.568;13.266;2023-04-01T07:46:07;9.83;;;4.07;;
4424;SDS011;2225;53.568;13.266;2023-04-01T07:48:53;8.40;;;3.57;;
4424;SDS011;2225;53.568;13.266;2023-04-01T07:51:33;8.40;;;3.37;;
4424;SDS011;2225;53.568;13.266;2023-04-01T07:54:36;11.50;;;3.70;;
4424;SDS011;2225;53.568;13.266;2023-04-01T08:03:11;16.90;;;4.33;;
4424;SDS011;2225;53.568;13.266;2023-04-01T08:06:10;10.00;;;4.40;;
4424;SDS011;2225;53.568;13.266;2023-04-01T08:12:11;11.50;;;4.47;;
4424;SDS011;2225;53.568;13.266;2023-04-01T08:21:25;11.20;;;4.87;;
4424;SDS011;2225;53.568;13.266;2023-04-01T08:24:00;20.43;;;5.30;;
4424;SDS011;2225;53.568;13.266;2023-04-01T08:26:48;10.67;;;5.47;;
4424;SDS011;2225;53.568;13.266;2023-04-01T08:29:22;9.10;;;5.00;;
4424;SDS011;2225;53.568;13.266;2023-04-01T08:32:11;9.40;;;5.20;;
4424;SDS011;2225;53.568;13.266;2023-04-01T08:34:43;10.80;;;5.60;;
4424;SDS011;2225;53.568;13.266;2023-04-01T08:37:30;14.00;;;4.57;;
4424;SDS011;2225;53.568;13.266;2023-04-01T08:40:11;9.33;;;5.20;;
4424;SDS011;2225;53.568;13.266;2023-04-01T08:52:34;11.30;;;4.97;;
4424;SDS011;2225;53.568;13.266;2023-04-01T08:58:28;10.80;;;6.00;;
4424;SDS011;2225;53.568;13.266;2023-04-01T09:04:53;9.30;;;5.23;;
4424;SDS011;2225;53.568;13.266;2023-04-01T09:10:56;10.00;;;5.70;;
4424;SDS011;2225;53.568;13.266;2023-04-01T09:17:46;12.03;;;5.07;;
4424;SDS011;2225;53.568;13.266;2023-04-01T09:20:52;9.90;;;4.40;;
4424;SDS011;2225;53.568;13.266;2023-04-01T09:24:12;11.50;;;5.80;;
4424;SDS011;2225;53.568;13.266;2023-04-01T09:27:04;13.23;;;4.83;;
4424;SDS011;2225;53.568;13.266;2023-04-01T09:42:18;17.70;;;5.93;;
4424;SDS011;2225;53.568;13.266;2023-04-01T09:54:43;9.53;;;5.20;;
4424;SDS011;2225;53.568;13.266;2023-04-01T10:01:19;12.57;;;4.70;;
4424;SDS011;2225;53.568;13.266;2023-04-01T10:16:54;14.50;;;5.37;;
4424;SDS011;2225;53.568;13.266;2023-04-01T10:20:09;11.80;;;5.13;;
4424;SDS011;2225;53.568;13.266;2023-04-01T10:23:36;12.70;;;4.30;;
4424;SDS011;2225;53.568;13.266;2023-04-01T10:26:31;8.87;;;4.90;;
4424;SDS011;2225;53.568;13.266;2023-04-01T10:33:16;11.00;;;5.13;;
4424;SDS011;2225;53.568;13.266;2023-04-01T10:36:01;11.20;;;4.90;;
4424;SDS011;2225;53.568;13.266;2023-04-01T10:38:52;11.30;;;4.97;;
4424;SDS011;2225;53.568;13.266;2023-04-01T10:48:34;11.30;;;3.67;;
4424;SDS011;2225;53.568;13.266;2023-04-01T10:51:40;6.47;;;3.30;;
4424;SDS011;2225;53.568;13.266;2023-04-01T10:54:47;8.87;;;3.80;;
4424;SDS011;2225;53.568;13.266;2023-04-01T10:58:29;9.60;;;4.10;;
4424;SDS011;2225;53.568;13.266;2023-04-01T11:02:29;12.00;;;4.40;;
4424;SDS011;2225;53.568;13.266;2023-04-01T11:05:46;8.40;;;4.33;;
4424;SDS011;2225;53.568;13.266;2023-04-01T11:08:35;9.53;;;3.60;;
4424;SDS011;2225;53.568;13.266;2023-04-01T11:23:28;13.30;;;5.00;;
4424;SDS011;2225;53.568;13.266;2023-04-01T11:41:37;14.40;;;3.80;;
4424;SDS011;2225;53.568;13.266;2023-04-01T11:44:37;11.13;;;3.73;;
4424;SDS011;2225;53.568;13.266;2023-04-01T11:50:44;8.63;;;3.47;;
4424;SDS011;2225;53.568;13.266;2023-04-01T11:53:37;7.67;;;3.80;;
4424;SDS011;2225;53.568;13.266;2023-04-01T12:08:14;9.83;;;3.10;;
4424;SDS011;2225;53.568;13.266;2023-04-01T12:11:05;6.33;;;2.83;;
4424;SDS011;2225;53.568;13.266;2023-04-01T12:13:42;8.50;;;3.20;;
4424;SDS011;2225;53.568;13.266;2023-04-01T12:22:22;11.03;;;3.40;;
4424;SDS011;2225;53.568;13.266;2023-04-01T12:31:52;9.93;;;4.10;;
4424;SDS011;2225;53.568;13.266;2023-04-01T12:40:02;10.30;;;3.23;;
4424;SDS011;2225;53.568;13.266;2023-04-01T12:43:14;15.77;;;5.07;;
4424;SDS011;2225;53.568;13.266;2023-04-01T12:49:20;11.43;;;4.93;;
4424;SDS011;2225;53.568;13.266;2023-04-01T12:55:42;11.63;;;4.63;;
4424;SDS011;2225;53.568;13.266;2023-04-01T12:58:17;13.17;;;4.03;;
4424;SDS011;2225;53.568;13.266;2023-04-01T13:01:17;7.40;;;4.20;;
4424;SDS011;2225;53.568;13.266;2023-04-01T13:04:05;14.47;;;4.77;;
4424;SDS011;2225;53.568;13.266;2023-04-01T13:17:10;11.33;;;4.07;;
4424;SDS011;2225;53.568;13.266;2023-04-01T13:32:41;14.17;;;5.03;;
4424;SDS011;2225;53.568;13.266;2023-04-01T13:38:37;12.87;;;5.27;;
4424;SDS011;2225;53.568;13.266;2023-04-01T13:41:30;12.03;;;4.57;;
4424;SDS011;2225;53.568;13.266;2023-04-01T13:44:11;11.67;;;4.27;;
4424;SDS011;2225;53.568;13.266;2023-04-01T13:46:57;13.20;;;3.90;;
4424;SDS011;2225;53.568;13.266;2023-04-01T13:50:04;12.87;;;4.57;;
4424;SDS011;2225;53.568;13.266;2023-04-01T13:56:29;12.47;;;4.83;;
4424;SDS011;2225;53.568;13.266;2023-04-01T14:17:24;8.00;;;4.00;;
4424;SDS011;2225;53.568;13.266;2023-04-01T14:23:11;12.53;;;4.47;;
4424;SDS011;2225;53.568;13.266;2023-04-01T14:28:49;12.27;;;4.30;;
4424;SDS011;2225;53.568;13.266;2023-04-01T14:34:48;14.67;;;3.77;;
4424;SDS011;2225;53.568;13.266;2023-04-01T14:40:52;10.73;;;3.80;;
4424;SDS011;2225;53.568;13.266;2023-04-01T14:46:56;13.23;;;4.60;;
4424;SDS011;2225;53.568;13.266;2023-04-01T14:52:57;13.57;;;4.43;;
4424;SDS011;2225;53.568;13.266;2023-04-01T14:55:56;18.07;;;4.60;;
4424;SDS011;2225;53.568;13.266;2023-04-01T14:58:45;11.77;;;3.70;;
4424;SDS011;2225;53.568;13.266;2023-04-01T15:01:26;12.53;;;3.90;;
4424;SDS011;2225;53.568;13.266;2023-04-01T15:10:23;12.90;;;4.70;;
4424;SDS011;2225;53.568;13.266;2023-04-01T15:28:06;9.63;;;4.20;;
4424;SDS011;2225;53.568;13.266;2023-04-01T15:31:11;9.20;;;3.87;;
4424;SDS011;2225;53.568;13.266;2023-04-01T15:43:35;9.87;;;3.97;;
4424;SDS011;2225;53.568;13.266;2023-04-01T15:46:26;11.40;;;3.17;;
4424;SDS011;2225;53.568;13.266;2023-04-01T15:57:36;11.60;;;4.03;;
4424;SDS011;2225;53.568;13.266;2023-04-01T16:12:07;7.07;;;3.57;;
4424;SDS011;2225;53.568;13.266;2023-04-01T16:15:08;10.70;;;4.07;;
4424;SDS011;2225;53.568;13.266;2023-04-01T16:20:45;7.33;;;3.37;;
4424;SDS011;2225;53.568;13.266;2023-04-01T16:24:10;10.27;;;3.93;;
4424;SDS011;2225;53.568;13.266;2023-04-01T16:27:06;13.30;;;2.80;;
4424;SDS011;2225;53.568;13.266;2023-04-01T16:29:46;14.00;;;3.57;;
4424;SDS011;2225;53.568;13.266;2023-04-01T16:32:27;7.90;;;3.67;;
4424;SDS011;2225;53.568;13.266;2023-04-01T16:43:30;9.60;;;3.20;;
4424;SDS011;2225;53.568;13.266;2023-04-01T16:49:04;7.97;;;2.90;;
4424;SDS011;2225;53.568;13.266;2023-04-01T16:54:56;10.23;;;3.63;;
4424;SDS011;2225;53.568;13.266;2023-04-01T16:57:31;12.33;;;4.13;;
4424;SDS011;2225;53.568;13.266;2023-04-01T17:00:26;10.00;;;2.40;;
4424;SDS011;2225;53.568;13.266;2023-04-01T17:05:37;6.93;;;2.87;;
4424;SDS011;2225;53.568;13.266;2023-04-01T17:08:39;8.40;;;3.47;;
4424;SDS011;2225;53.568;13.266;2023-04-01T17:11:39;10.27;;;3.73;;
4424;SDS011;2225;53.568;13.266;2023-04-01T17:17:33;7.50;;;3.47;;
4424;SDS011;2225;53.568;13.266;2023-04-01T17:20:23;10.07;;;3.80;;
4424;SDS011;2225;53.568;13.266;2023-04-01T17:40:53;8.27;;;3.40;;
4424;SDS011;2225;53.568;13.266;2023-04-01T17:43:52;9.77;;;3.47;;
4424;SDS011;2225;53.568;13.266;2023-04-01T17:46:38;7.27;;;2.90;;
4424;SDS011;2225;53.568;13.266;2023-04-01T17:52:04;7.20;;;3.00;;
4424;SDS011;2225;53.568;13.266;2023-04-01T17:57:43;13.23;;;2.90;;
4424;SDS011;2225;53.568;13.266;2023-04-01T18:03:46;8.10;;;2.80;;
4424;SDS011;2225;53.568;13.266;2023-04-01T18:06:44;7.93;;;2.67;;
4424;SDS011;2225;53.568;13.266;2023-04-01T18:15:05;17.10;;;3.10;;
4424;SDS011;2225;53.568;13.266;2023-04-01T18:27:16;9.73;;;2.70;;
4424;SDS011;2225;53.568;13.266;2023-04-01T18:29:55;7.50;;;2.70;;
4424;SDS011;2225;53.568;13.266;2023-04-01T18:32:50;9.67;;;3.13;;
4424;SDS011;2225;53.568;13.266;2023-04-01T18:38:38;10.70;;;3.27;;
4424;SDS011;2225;53.568;13.266;2023-04-01T18:41:13;9.07;;;2.47;;
4424;SDS011;2225;53.568;13.266;2023-04-01T18:43:53;8.20;;;2.33;;
4424;SDS011;2225;53.568;13.266;2023-04-01T18:46:49;12.83;;;4.00;;
4424;SDS011;2225;53.568;13.266;2023-04-01T18:52:59;5.57;;;1.77;;
4424;SDS011;2225;53.568;13.266;2023-04-01T18:55:59;7.23;;;2.30;;
4424;SDS011;2225;53.568;13.266;2023-04-01T18:58:42;6.20;;;2.20;;
4424;SDS011;2225;53.568;13.266;2023-04-01T19:01:26;9.33;;;2.70;;
4424;SDS011;2225;53.568;13.266;2023-04-01T19:04:21;10.33;;;2.33;;
4424;SDS011;2225;53.568;13.266;2023-04-01T19:07:01;10.17;;;3.03;;
4424;SDS011;2225;53.568;13.266;2023-04-01T19:15:48;12.70;;;2.53;;
4424;SDS011;2225;53.568;13.266;2023-04-01T19:27:50;6.43;;;1.77;;
4424;SDS011;2225;53.568;13.266;2023-04-01T19:30:56;6.40;;;2.10;;
4424;SDS011;2225;53.568;13.266;2023-04-01T19:45:15;13.73;;;2.50;;
4424;SDS011;2225;53.568;13.266;2023-04-01T19:48:15;6.90;;;2.10;;
4424;SDS011;2225;53.568;13.266;2023-04-01T19:50:49;11.80;;;2.63;;
4424;SDS011;2225;53.568;13.266;2023-04-01T19:53:44;14.73;;;2.30;;
4424;SDS011;2225;53.568;13.266;2023-04-01T19:56:21;8.73;;;2.17;;
4424;SDS011;2225;53.568;13.266;2023-04-01T20:04:39;4.90;;;1.83;;
4424;SDS011;2225;53.568;13.266;2023-04-01T20:07:22;11.03;;;2.10;;
4424;SDS011;2225;53.568;13.266;2023-04-01T20:13:05;8.70;;;2.33;;
4424;SDS011;2225;53.568;13.266;2023-04-01T20:16:08;8.57;;;2.10;;
4424;SDS011;2225;53.568;13.266;2023-04-01T20:21:35;7.10;;;1.73;;
4424;SDS011;2225;53.568;13.266;2023-04-01T20:24:23;5.10;;;1.53;;
4424;SDS011;2225;53.568;13.266;2023-04-01T20:27:08;10.50;;;2.23;;
4424;SDS011;2225;53.568;13.266;2023-04-01T20:38:10;8.57;;;1.70;;
4424;SDS011;2225;53.568;13.266;2023-04-01T20:41:20;7.47;;;1.37;;
4424;SDS011;2225;53.568;13.266;2023-04-01T20:50:47;10.30;;;1.70;;
4424;SDS011;2225;53.568;13.266;2023-04-01T20:53:01;10.87;;;2.70;;
4424;SDS011;2225;53.568;13.266;2023-04-01T20:55:51;8.90;;;2.30;;
4424;SDS011;2225;53.568;13.266;2023-04-01T21:04:44;10.40;;;2.30;;
4424;SDS011;2225;53.568;13.266;2023-04-01T21:11:04;6.03;;;1.90;;
4424;SDS011;2225;53.568;13.266;2023-04-01T21:13:54;6.60;;;1.70;;
4424;SDS011;2225;53.568;13.266;2023-04-01T21:17:01;5.90;;;1.70;;
4424;SDS011;2225;53.568;13.266;2023-04-01T21:20:17;8.03;;;1.80;;
4424;SDS011;2225;53.568;13.266;2023-04-01T21:23:28;9.47;;;1.77;;
4424;SDS011;2225;53.568;13.266;2023-04-01T21:34:55;9.13;;;2.20;;
4424;SDS011;2225;53.568;13.266;2023-04-01T21:37:50;9.07;;;2.03;;
4424;SDS011;2225;53.568;13.266;2023-04-01T21:43:39;11.20;;;2.27;;
4424;SDS011;2225;53.568;13.266;2023-04-01T21:46:48;5.50;;;2.27;;
4424;SDS011;2225;53.568;13.266;2023-04-01T21:52:53;8.03;;;2.20;;
4424;SDS011;2225;53.568;13.266;2023-04-01T22:01:50;6.87;;;1.83;;
4424;SDS011;2225;53.568;13.266;2023-04-01T22:04:46;8.60;;;2.30;;
4424;SDS011;2225;53.568;13.266;2023-04-01T22:07:25;6.70;;;1.60;;
4424;SDS011;2225;53.568;13.266;2023-04-01T22:13:17;6.67;;;1.70;;
4424;SDS011;2225;53.568;13.266;2023-04-01T22:22:49;6.60;;;2.30;;
4424;SDS011;2225;53.568;13.266;2023-04-01T22:25:44;10.90;;;1.70;;
4424;SDS011;2225;53.568;13.266;2023-04-01T22:29:07;5.30;;;1.47;;
4424;SDS011;2225;53.568;13.266;2023-04-01T22:31:35;5.90;;;1.80;;
4424;SDS011;2225;53.568;13.266;2023-04-01T22:34:30;7.00;;;1.93;;
4424;SDS011;2225;53.568;13.266;2023-04-01T22:37:31;7.43;;;2.10;;
4424;SDS011;2225;53.568;13.266;2023-04-01T22:40:22;14.90;;;2.10;;
4424;SDS011;2225;53.568;13.266;2023-04-01T22:43:04;11.43;;;2.67;;
4424;SDS011;2225;53.568;13.266;2023-04-01T22:45:45;4.37;;;1.47;;
4424;SDS011;2225;53.568;13.266;2023-04-01T22:48:26;24.93;;;2.20;;
4424;SDS011;2225;53.568;13.266;2023-04-01T22:56:51;5.70;;;1.90;;
4424;SDS011;2225;53.568;13.266;2023-04-01T22:59:31;4.30;;;1.60;;
4424;SDS011;2225;53.568;13.266;2023-04-01T23:03:20;9.00;;;2.10;;
4424;SDS011;2225;53.568;13.266;2023-04-01T23:05:52;7.43;;;1.70;;
4424;SDS011;2225;53.568;13.266;2023-04-01T23:12:13;8.60;;;2.03;;
4424;SDS011;2225;53.568;13.266;2023-04-01T23:14:41;8.00;;;1.60;;
4424;SDS011;2225;53.568;13.266;2023-04-01T23:17:39;12.60;;;2.43;;
4424;SDS011;2225;53.568;13.266;2023-04-01T23:23:12;9.53;;;2.10;;
4424;SDS011;2225;53.568;13.266;2023-04-01T23:29:12;6.73;;;1.67;;
4424;SDS011;2225;53.568;13.266;2023-04-01T23:31:41;7.93;;;2.20;;
4424;SDS011;2225;53.568;13.266;2023-04-01T23:36:49;6.57;;;1.73;;
4424;SDS011;2225;53.568;13.266;2023-04-01T23:39:33;10.00;;;2.10;;
4424;SDS011;2225;53.568;13.266;2023-04-01T23:42:37;7.43;;;2.10;;
4424;SDS011;2225;53.568;13.266;2023-04-01T23:45:13;7.20;;;1.77;;
4424;SDS011;2225;53.568;13.266;2023-04-01T23:47:44;6.37;;;2.07;;
4424;SDS011;2225;53.568;13.266;2023-04-01T23:50:20;6.23;;;2.03;;
4424;SDS011;2225;53.568;13.266;2023-04-01T23:53:02;10.50;;;3.77;;
4424;SDS011;2225;53.568;13.266;2023-04-01T23:55:44;13.03;;;2.57;;
4424;SDS011;2225;53.568;13.266;2023-04-01T23:58:26;10.03;;;1.97;;
